Terminal Aerodrome Forecast
Issued by NWS

Home | Current Version | Previous Version | Text Only | Print | Product List | Glossary On
Versions: 1 2 3 4 5 6 7 8 9 10 11 12
588
FTUS42 KTAE 291737
TAFECP
TAF
KECP 291737Z 2918/3018 35004KT P6SM SCT060
     FM291900 21009KT P6SM VCTS SCT050CB
     FM300100 30003KT P6SM FEW060 SCT250
     FM301400 32005KT P6SM FEW040=

USA.gov is the U.S. government's official web portal to all federal, state and local government web resources and services.